Latest Weather Observations for Yulara

IDD60801

Issued at 4:21 am CST Friday 30 October 2020 (issued every 10 minutes, with the page automatically refreshed every 10 minutes)

About weather observations | Map of weather stations | Latest weather observations for NT | Other Formats
Station Details ID: 015635 Name: YULARA AIRPORT Lat: -25.19 Lon: 130.97 Height: 492.0 m
Data from the previous 72 hours. | See also: Recent months at Yulara
Date/Time
CST
Temp
°C
App
Temp
°C
Dew
Point
°C
Rel
Hum
%
Delta-T
°C
Wind Press
QNH
hPa
Press
MSL
hPa
Rain since
9am
mm
Dir  Spd
km/h
Gust
km/h
Spd
kts
Gust
kts
30/04:00am 18.5 13.1 1.5 32 7.9 SSE 19 28 10 15 1016.3 1013.7 0.0
30/03:30am 19.2 14.6 1.7 31 8.2 SSE 15 20 8 11 1016.3 1013.7 0.0
30/03:00am 19.9 14.4 1.8 30 8.5 SSE 20 28 11 15 1016.3 1013.7 0.0
30/02:30am 20.4 15.5 1.8 29 8.8 SSE 17 24 9 13 1016.1 1013.5 0.0
30/02:00am 20.9 16.0 1.7 28 9.1 SSE 17 26 9 14 1016.0 1013.4 0.0
30/01:30am 21.5 16.2 1.7 27 9.4 SSE 19 28 10 15 1016.1 1013.5 0.0
30/01:00am 22.1 16.6 1.7 26 9.7 SSE 20 28 11 15 1016.1 1013.5 0.0
30/12:30am 22.7 17.3 2.2 26 9.9 SSE 20 33 11 18 1016.1 1013.5 0.0
30/12:00am 23.3 16.7 2.2 25 10.2 SSE 26 37 14 20 1016.1 1013.5 0.0
 
Date/Time
CST
Temp
°C
App
Temp
°C
Dew
Point
°C
Rel
Hum
%
Delta-T
°C
Wind Press
QNH
hPa
Press
MSL
hPa
Rain since
9am
mm
Dir  Spd
km/h
Gust
km/h
Spd
kts
Gust
kts
29/11:30pm 23.7 18.4 2.0 24 10.5 SE 19 26 10 14 1016.2 1013.6 0.0
29/11:00pm 24.8 18.4 1.0 21 11.4 SE 24 35 13 19 1016.0 1013.4 0.0
29/10:30pm 25.1 20.7 0.6 20 11.7 SSE 13 20 7 11 1015.5 1012.9 0.0
29/10:00pm 25.7 21.5 1.8 21 11.7 SSE 13 22 7 12 1015.3 1012.7 0.0
29/09:30pm 26.4 21.5 4.2 24 11.4 SSE 19 26 10 14 1014.7 1012.1 0.0
29/09:00pm 27.3 20.0 4.4 23 11.9 S 32 43 17 23 1014.2 1011.6 0.0
29/08:45pm 27.7 20.3 4.1 22 12.2 S 32 50 17 27 1014.0 1011.4 0.0
29/08:30pm 28.0 21.0 4.3 22 12.3 S 30 39 16 21 1014.0 1011.4 0.0
29/08:00pm 28.8 22.2 4.3 21 12.8 S 28 39 15 21 1013.5 1010.9 0.0
29/07:30pm 29.9 23.4 4.5 20 13.4 S 28 44 15 24 1013.1 1010.5 0.0
29/07:00pm 30.8 22.8 3.8 18 14.1 S 35 46 19 25 1012.5 1009.8 0.0
29/06:30pm 32.3 24.8 3.3 16 15.2 S 32 48 17 26 1011.9 1009.3 0.0
29/06:29pm 32.3 24.8 3.3 16 15.2 S 32 50 17 27 1011.9 1009.3 0.0
29/06:00pm 33.2 24.3 3.1 15 15.8 S 39 56 21 30 1011.5 1008.9 0.0
29/05:48pm 33.9 25.3 2.7 14 16.3 S 37 56 20 30 1011.3 1008.7 0.0
29/05:30pm 34.8 25.8 2.3 13 17.0 S 39 54 21 29 1011.0 1008.4 0.0
29/05:00pm 36.3 27.3 -0.2 10 18.5 S 37 56 20 30 1010.4 1007.7 0.0
29/04:53pm 36.5 27.5 0.0 10 18.6 S 37 56 20 30 1010.2 1007.6 0.0
29/04:35pm 37.5 31.6 -0.7 9 19.4 SW 20 44 11 24 1010.2 1007.6 0.0
29/04:30pm 36.6 30.8 -1.4 9 19.0 SW 19 30 10 16 1010.5 1007.8 0.0
29/04:00pm 37.4 30.7 -0.8 9 19.3 SW 24 35 13 19 1010.5 1007.8 0.0
29/03:32pm 38.6 30.6 0.1 9 19.9 S 32 50 17 27 1010.5 1007.8 0.0
29/03:30pm 38.2 29.9 -0.2 9 19.7 SSW 33 50 18 27 1010.4 1007.7 0.0
29/03:27pm 36.8 28.2 0.2 10 18.7 SW 35 52 19 28 1010.5 1007.8 0.0
29/03:19pm 37.8 30.0 -0.5 9 19.5 W 30 52 16 28 1010.5 1007.8 0.0
29/03:00pm 38.6 31.1 -1.5 8 20.2 W 28 43 15 23 1010.8 1008.1 0.0
29/02:39pm 38.3 30.8 -1.7 8 20.1 W 28 50 15 27 1010.8 1008.1 0.0
29/02:30pm 39.2 32.7 0.6 9 20.2 W 24 37 13 20 1011.3 1008.7 0.0
29/02:00pm 38.1 30.5 -1.9 8 20.0 W 28 41 15 22 1012.0 1009.4 0.0
29/01:30pm 38.2 31.6 -0.2 9 19.7 NW 24 44 13 24 1012.5 1009.8 0.0
29/01:00pm 37.5 30.5 -0.7 9 19.4 WNW 26 43 14 23 1013.0 1010.4 0.0
29/12:30pm 37.7 30.7 -0.6 9 19.5 W 26 41 14 22 1013.5 1010.9 0.0
29/12:00pm 36.8 28.8 0.2 10 18.7 NW 32 52 17 28 1014.1 1011.5 0.0
29/11:55am 36.5 28.8 0.0 10 18.6 NW 30 52 16 28 1014.1 1011.5 0.0
29/11:30am 36.5 29.2 0.0 10 18.6 NW 28 44 15 24 1014.8 1012.2 0.0
29/11:00am 35.2 27.4 -4.0 8 18.6 NW 28 39 15 21 1015.3 1012.7 0.0
29/10:30am 34.0 26.1 -4.9 8 18.0 NNW 28 43 15 23 1015.6 1013.0 0.0
29/10:00am 32.9 25.5 -7.4 7 17.8 NNW 24 30 13 16 1016.1 1013.5 0.0
29/09:30am 31.8 24.9 -6.5 8 17.0 NW 22 32 12 17 1016.3 1013.7 0.0
29/09:00am 29.4 23.4 -6.7 9 15.6 NW 17 24 9 13 1016.4 1013.9 0.0
29/08:30am 27.8 21.3 -7.9 9 14.9 WNW 19 28 10 15 1016.4 1013.9 0.0
29/08:00am 26.8 21.5 -7.3 10 14.3 WNW 13 20 7 11 1016.5 1014.0 0.0
29/07:30am 23.1 19.5 -3.3 17 11.5 SW 6 7 3 4 1016.1 1013.5 0.0
29/07:00am 19.8 15.8 -1.9 23 9.5 SSW 9 11 5 6 1015.7 1013.1 0.0
29/06:30am 16.8 13.0 -0.9 30 7.7 SSW 9 11 5 6 1015.2 1012.6 0.0
29/06:00am 15.1 11.4 0.2 36 6.5 SSW 9 41 5 22 1015.1 1012.5 0.0
29/05:30am 14.6 11.9 2.5 44 5.5 SSW 6 9 3 5 1014.8 1012.2 0.0
29/05:00am 15.1 11.8 2.3 42 5.8 SSW 9 13 5 7 1014.5 1012.0 0.0
29/04:30am 16.5 12.9 0.6 34 7.1 S 9 15 5 8 1014.2 1011.6 0.0
29/04:00am 15.9 13.9 0.1 34 6.9 CALM 0 6 0 3 1014.1 1011.5 0.0
29/03:30am 16.5 13.3 -0.2 32 7.3 S 6 6 3 3 1014.2 1011.6 0.0
29/03:00am 17.4 15.1 -2.3 26 8.3 CALM 0 6 0 3 1014.2 1011.6 0.0
29/02:30am 16.6 13.8 -0.1 32 7.3 SW 4 7 2 4 1014.4 1011.8 0.0
29/02:00am 19.9 16.2 -3.0 21 9.8 SE 7 9 4 5 1014.8 1012.2 0.0
29/01:30am 22.1 18.1 -5.7 15 11.5 E 7 11 4 6 1014.9 1012.3 0.0
29/01:00am 22.4 17.9 -6.4 14 11.8 ESE 9 11 5 6 1015.3 1012.7 0.0
29/12:30am 23.8 17.5 -6.2 13 12.5 NE 19 22 10 12 1015.1 1012.5 0.0
29/12:00am 24.8 18.8 -6.5 12 13.1 ENE 17 20 9 11 1015.5 1012.9 0.0
 
Date/Time
CST
Temp
°C
App
Temp
°C
Dew
Point
°C
Rel
Hum
%
Delta-T
°C
Wind Press
QNH
hPa
Press
MSL
hPa
Rain since
9am
mm
Dir  Spd
km/h
Gust
km/h
Spd
kts
Gust
kts
28/11:30pm 23.4 18.8 -3.8 16 11.8 E 11 15 6 8 1015.7 1013.1 0.0
28/11:00pm 22.1 18.6 -2.6 19 10.8 E 6 7 3 4 1015.9 1013.3 0.0
28/10:30pm 24.6 20.7 -4.6 14 12.6 E 7 11 4 6 1015.9 1013.3 0.0
28/10:00pm 26.1 21.7 -5.5 12 13.6 E 9 11 5 6 1015.8 1013.2 0.0
28/09:30pm 26.4 21.9 -6.4 11 13.9 ENE 9 13 5 7 1015.7 1013.1 0.0
28/09:00pm 27.3 22.4 -6.9 10 14.5 E 11 13 6 7 1015.6 1013.0 0.0
28/08:30pm 28.4 23.6 -6.1 10 15.0 E 11 13 6 7 1015.4 1012.8 0.0
28/08:00pm 29.4 24.5 -6.7 9 15.6 ESE 11 13 6 7 1015.2 1012.6 0.0
28/07:30pm 31.0 26.5 -7.1 8 16.6 ESE 9 13 5 7 1014.9 1012.3 0.0
28/07:00pm 32.4 28.4 -7.8 7 17.5 ESE 6 7 3 4 1014.4 1011.8 0.0
28/06:30pm 33.7 29.0 -8.8 6 18.4 SE 9 13 5 7 1014.1 1011.5 0.0
28/06:00pm 34.6 30.0 -8.2 6 18.9 ESE 9 19 5 10 1013.8 1011.2 0.0
28/05:30pm 34.8 30.2 -8.0 6 19.0 SE 9 13 5 7 1013.7 1011.1 0.0
28/05:00pm 34.0 29.3 -8.6 6 18.6 NE 9 17 5 9 1013.7 1011.1 0.0
28/04:30pm 35.1 30.1 -7.8 6 19.1 SE 11 17 6 9 1013.8 1011.2 0.0
28/04:00pm 34.7 30.3 -6.1 7 18.6 W 9 17 5 9 1013.9 1011.3 0.0
28/03:30pm 34.2 28.6 -6.5 7 18.4 SSE 15 22 8 12 1014.2 1011.6 0.0
28/03:00pm 34.3 28.3 -6.4 7 18.4 SSE 17 28 9 15 1014.7 1012.1 0.0
28/02:30pm 33.9 29.0 -6.7 7 18.2 WNW 11 19 6 10 1015.1 1012.5 0.0
28/02:00pm 33.7 28.1 -6.8 7 18.1 ESE 15 22 8 12 1015.6 1013.0 0.0
28/01:30pm 32.7 27.9 -5.8 8 17.4 WSW 11 20 6 11 1016.3 1013.7 0.0
28/01:00pm 33.1 27.6 -5.5 8 17.6 W 15 24 8 13 1016.6 1014.1 0.0
28/12:30pm 32.5 27.7 -6.0 8 17.3 NW 11 19 6 10 1017.2 1014.6 0.0
28/12:00pm 31.5 27.2 -5.2 9 16.6 W 9 11 5 6 1017.7 1015.1 0.0
28/11:30am 30.7 26.4 -4.4 10 16.0 SE 9 13 5 7 1018.2 1015.7 0.0
28/11:00am 30.4 26.5 -4.6 10 15.9 N 7 15 4 8 1018.6 1016.1 0.0
28/10:30am 29.2 25.5 -4.3 11 15.1 E 6 11 3 6 1019.1 1016.5 0.0
28/10:00am 27.9 24.1 -4.1 12 14.3 NNE 7 13 4 7 1019.3 1016.7 0.0
28/09:30am 26.8 23.3 -2.9 14 13.4 SE 6 9 3 5 1019.4 1016.8 0.0
28/09:00am 25.0 20.5 -3.4 15 12.6 ENE 11 15 6 8 1019.3 1016.7 0.0
28/08:30am 24.2 19.8 -2.4 17 11.9 E 11 17 6 9 1019.3 1016.7 0.0
28/08:00am 22.6 17.8 -2.9 18 11.2 ESE 13 17 7 9 1019.0 1016.4 0.0
28/07:30am 20.6 15.9 -1.8 22 9.8 ESE 13 17 7 9 1018.5 1016.0 0.0
28/07:00am 18.5 14.2 -1.3 26 8.6 ESE 11 15 6 8 1018.2 1015.7 0.0
28/06:30am 16.3 12.4 -1.3 30 7.5 SSE 9 13 5 7 1017.7 1015.1 0.0
28/06:00am 15.2 11.4 -0.9 33 6.9 SSE 9 13 5 7 1017.4 1014.8 0.0
28/05:30am 16.0 12.2 -1.1 31 7.3 SSE 9 13 5 7 1017.0 1014.4 0.0
28/05:00am 16.5 12.7 -1.1 30 7.6 SSE 9 13 5 7 1016.8 1014.2 0.0
28/04:30am 16.8 12.5 -1.3 29 7.8 SSE 11 15 6 8 1016.4 1013.9 0.0
28/04:00am 17.2 12.6 -1.4 28 8.0 SSE 13 17 7 9 1016.4 1013.9 0.0
28/03:30am 17.3 13.1 -0.9 29 7.9 SSE 11 13 6 7 1016.3 1013.7 0.0
28/03:00am 17.6 13.4 -1.1 28 8.1 SSE 11 13 6 7 1016.2 1013.6 0.0
28/02:30am 18.5 14.3 -0.8 27 8.5 SSE 11 17 6 9 1015.9 1013.3 0.0
28/02:00am 19.2 14.6 -1.3 25 9.0 SSE 13 15 7 8 1016.0 1013.4 0.0
28/01:30am 19.9 15.7 -1.2 24 9.3 SSE 11 13 6 7 1016.1 1013.5 0.0
28/01:00am 20.0 16.5 -1.2 24 9.4 SE 7 11 4 6 1016.1 1013.5 0.0
28/12:30am 22.0 17.7 -2.0 20 10.6 E 11 15 6 8 1016.2 1013.6 0.0
28/12:00am 22.4 17.7 -1.6 20 10.8 E 13 15 7 8 1016.4 1013.9 0.0
 
Date/Time
CST
Temp
°C
App
Temp
°C
Dew
Point
°C
Rel
Hum
%
Delta-T
°C
Wind Press
QNH
hPa
Press
MSL
hPa
Rain since
9am
mm
Dir  Spd
km/h
Gust
km/h
Spd
kts
Gust
kts
27/11:30pm 22.4 18.3 -0.3 22 10.4 ESE 11 15 6 8 1016.3 1013.7 0.0
27/11:00pm 21.9 18.2 -0.1 23 10.1 SE 9 11 5 6 1016.3 1013.7 0.0
27/10:30pm 22.6 18.5 -0.2 22 10.5 SE 11 13 6 7 1016.2 1013.6 0.0
27/10:00pm 24.4 20.3 0.0 20 11.5 E 11 13 6 7 1016.1 1013.5 0.0
27/09:30pm 24.5 20.7 -0.6 19 11.7 E 9 9 5 5 1016.0 1013.4 0.0
27/09:00pm 24.3 20.5 -0.8 19 11.6 ESE 9 13 5 7 1015.8 1013.2 0.0
27/08:30pm 26.5 23.0 -1.3 16 12.9 ESE 7 9 4 5 1015.5 1012.9 0.0
27/08:00pm 27.1 23.7 -0.9 16 13.2 ESE 7 9 4 5 1015.1 1012.5 0.0
27/07:30pm 27.9 24.6 -1.1 15 13.7 ESE 6 7 3 4 1014.5 1012.0 0.0
27/07:00pm 29.8 26.9 -3.8 11 15.4 ESE 2 7 1 4 1014.1 1011.5 0.0
27/06:30pm 30.5 26.8 -3.3 11 15.7 SSE 7 11 4 6 1013.8 1011.2 0.0
27/06:00pm 30.8 27.1 -3.0 11 15.8 SSE 7 17 4 9 1013.6 1011.0 0.0
27/05:30pm 31.0 26.4 -4.1 10 16.1 SE 11 17 6 9 1013.3 1010.7 0.0
27/05:00pm 31.5 26.6 -3.8 10 16.3 SW 13 24 7 13 1013.2 1010.6 0.0
27/04:30pm 31.2 27.4 -4.0 10 16.2 SSE 7 15 4 8 1013.2 1010.6 0.0
27/04:00pm 31.1 26.5 -4.1 10 16.2 WSW 11 26 6 14 1013.3 1010.7 0.0
27/03:30pm 30.8 27.1 -3.0 11 15.8 SSW 7 13 4 7 1013.3 1010.7 0.0
27/03:00pm 30.2 25.4 -2.3 12 15.3 NNW 13 22 7 12 1013.6 1011.0 0.0
27/02:30pm 30.6 26.6 -2.0 12 15.5 WNW 9 22 5 12 1014.0 1011.4 0.0
27/02:00pm 29.6 24.5 -1.7 13 14.8 WSW 15 28 8 15 1014.4 1011.8 0.0
27/01:30pm 29.6 24.9 -1.7 13 14.8 SE 13 20 7 11 1014.9 1012.3 0.0
27/01:00pm 29.3 25.6 0.0 15 14.3 NE 9 15 5 8 1015.4 1012.8 0.0
27/12:30pm 28.7 25.6 1.3 17 13.6 SW 7 13 4 7 1016.0 1013.4 0.0
27/12:00pm 28.3 25.3 1.7 18 13.2 N 7 20 4 11 1016.6 1014.1 0.0
27/11:30am 27.5 24.6 2.6 20 12.5 NE 7 13 4 7 1017.2 1014.6 0.0
27/11:00am 26.5 22.9 0.3 18 12.6 NNE 9 22 5 12 1017.7 1015.1 0.0
27/10:30am 25.2 21.1 0.0 19 11.9 ENE 11 22 6 12 1017.9 1015.3 0.0
27/10:00am 24.0 19.1 -0.3 20 11.3 ENE 15 26 8 14 1018.0 1015.4 0.0
27/09:30am 23.4 18.1 -0.8 20 11.1 E 17 24 9 13 1018.2 1015.7 0.0
27/09:00am 22.1 16.1 -1.2 21 10.5 E 20 28 11 15 1018.3 1015.8 0.0
27/08:30am 21.5 15.2 -1.1 22 10.1 E 22 30 12 16 1018.1 1015.5 0.0
27/08:00am 19.9 13.6 -1.2 24 9.3 E 22 30 12 16 1018.0 1015.4 0.0
27/07:30am 18.4 13.1 -0.9 27 8.5 ESE 17 24 9 13 1017.7 1015.1 0.0
27/07:00am 17.0 12.1 -0.7 30 7.7 ESE 15 22 8 12 1017.2 1014.6 0.0
27/06:30am 15.2 10.7 -0.5 34 6.8 SE 13 15 7 8 1016.8 1014.2 0.0
27/06:00am 14.7 10.2 -0.6 35 6.5 SE 13 19 7 10 1016.2 1013.6 0.0
27/05:30am 14.8 10.3 -0.5 35 6.6 SE 13 17 7 9 1015.8 1013.2 0.0
27/05:00am 15.1 10.6 -0.2 35 6.6 SE 13 15 7 8 1015.6 1013.0 0.0
27/04:30am 15.1 11.0 -0.2 35 6.6 SE 11 13 6 7 1015.5 1012.9 0.0

Other formats

Comma delimited format used in spreadsheet applications
http://www.bom.gov.au/fwo/IDD60801/IDD60801.94462.axf

JavaScript Object Notation format (JSON) in row-major order
http://www.bom.gov.au/fwo/IDD60801/IDD60801.94462.json

Data quality

Most of these data are generated automatically and are frequently updated. Quality checks on data are not normally performed. It is possible for incorrect values to appear. Refer to information at About Latest Weather Observations and please check the disclaimer before using these data.